BAW1QD LPPT-EGLL
Flight info
| Callsign | BAW1QD |
|---|---|
| Flight time | N/A |
| Altitude | 34000 |
| Route | IXIDA DCT RIVRO DCT TOSDI DCT ZMR DCT NUBLO DCT RONSI DCT DELOG DCT DEGEX DCT OZNOH DCT JSY DCT REVTU UP87 ROXOG |
| Aircraft | A321/M-SDE3FGHIRWY/LB1 |
Departure
| Time | 2026-05-06 16:12 |
|---|---|
| Airport | Lisbon Humberto Delgado Airport (LPPT) |
Arrival
| Time | N/A |
|---|---|
| Airport | London Heathrow Airport (EGLL) |
| Time | Latitude | Longitude | Altitude | Speed | Heading |
|---|---|---|---|---|---|
| 2026-05-06 15:55 | 38.76980 | -9.13100 | 347 ft | 0 kts | 72° |
| 2026-05-06 16:04 | 38.76976 | -9.13117 | 347 ft | 4 kts | 106° |
| 2026-05-06 16:04 | 38.76985 | -9.13125 | 347 ft | 4 kts | 184° |
| 2026-05-06 16:05 | 38.77004 | -9.13125 | 347 ft | 0 kts | 168° |
| 2026-05-06 16:07 | 38.76990 | -9.13131 | 347 ft | 6 kts | 200° |
| 2026-05-06 16:07 | 38.76943 | -9.13152 | 354 ft | 8 kts | 186° |
| 2026-05-06 16:07 | 38.76887 | -9.13142 | 354 ft | 9 kts | 168° |
| 2026-05-06 16:08 | 38.76821 | -9.13124 | 351 ft | 11 kts | 171° |
| 2026-05-06 16:08 | 38.76780 | -9.13183 | 349 ft | 10 kts | 253° |
| 2026-05-06 16:08 | 38.76764 | -9.13272 | 347 ft | 11 kts | 257° |
| 2026-05-06 16:08 | 38.76741 | -9.13377 | 350 ft | 16 kts | 239° |
| 2026-05-06 16:09 | 38.76659 | -9.13475 | 350 ft | 16 kts | 243° |
| 2026-05-06 16:09 | 38.76633 | -9.13615 | 347 ft | 16 kts | 257° |
| 2026-05-06 16:09 | 38.76611 | -9.13762 | 347 ft | 17 kts | 258° |
| 2026-05-06 16:09 | 38.76584 | -9.13913 | 355 ft | 18 kts | 258° |
| 2026-05-06 16:10 | 38.76533 | -9.14053 | 357 ft | 18 kts | 230° |
| 2026-05-06 16:10 | 38.76506 | -9.14197 | 351 ft | 18 kts | 294° |
| 2026-05-06 16:10 | 38.76555 | -9.14353 | 338 ft | 21 kts | 293° |
| 2026-05-06 16:10 | 38.76639 | -9.14393 | 334 ft | 13 kts | 24° |
| 2026-05-06 16:11 | 38.76655 | -9.14384 | 339 ft | 0 kts | 23° |
| 2026-05-06 16:11 | 38.76708 | -9.14355 | 339 ft | 36 kts | 23° |
| 2026-05-06 16:11 | 38.77163 | -9.14112 | 351 ft | 104 kts | 22° |
| 2026-05-06 16:12 | 38.78015 | -9.13656 | 351 ft | 159 kts | 22° |
| 2026-05-06 16:12 | 38.79136 | -9.13076 | 662 ft | 177 kts | 19° |
| 2026-05-06 16:12 | 38.80281 | -9.12469 | 1383 ft | 177 kts | 19° |
| 2026-05-06 16:12 | 38.81432 | -9.11834 | 1845 ft | 188 kts | 22° |
| 2026-05-06 16:13 | 38.82625 | -9.10924 | 2046 ft | 210 kts | 28° |
| 2026-05-06 16:13 | 38.83941 | -9.09899 | 2223 ft | 233 kts | 28° |
| 2026-05-06 16:13 | 38.85402 | -9.08774 | 2543 ft | 254 kts | 29° |
| 2026-05-06 16:13 | 38.86938 | -9.07590 | 3179 ft | 260 kts | 29° |
| 2026-05-06 16:14 | 38.88478 | -9.06394 | 3881 ft | 263 kts | 29° |
| 2026-05-06 16:14 | 38.89996 | -9.05061 | 4592 ft | 267 kts | 40° |
| 2026-05-06 16:14 | 38.91365 | -9.03427 | 5299 ft | 270 kts | 43° |
| 2026-05-06 16:14 | 38.92713 | -9.01736 | 5993 ft | 272 kts | 44° |
| 2026-05-06 16:15 | 38.94064 | -9.00015 | 6684 ft | 274 kts | 44° |
| 2026-05-06 16:15 | 38.95423 | -8.98279 | 7362 ft | 277 kts | 44° |
| 2026-05-06 16:15 | 38.96795 | -8.96527 | 8019 ft | 280 kts | 44° |
| 2026-05-06 16:15 | 38.98187 | -8.94755 | 8646 ft | 283 kts | 44° |
| 2026-05-06 16:16 | 38.99597 | -8.92965 | 9279 ft | 287 kts | 44° |
| 2026-05-06 16:16 | 39.01022 | -8.91156 | 9906 ft | 289 kts | 44° |
| 2026-05-06 16:16 | 39.02483 | -8.89303 | 10241 ft | 304 kts | 44° |
| 2026-05-06 16:16 | 39.04037 | -8.87328 | 10375 ft | 324 kts | 44° |
| 2026-05-06 16:17 | 39.05685 | -8.85227 | 10504 ft | 343 kts | 44° |
| 2026-05-06 16:17 | 39.07420 | -8.83016 | 10700 ft | 358 kts | 44° |
| 2026-05-06 16:17 | 39.09213 | -8.80733 | 11132 ft | 365 kts | 44° |
| 2026-05-06 16:17 | 39.11027 | -8.78425 | 11653 ft | 369 kts | 44° |
| 2026-05-06 16:18 | 39.12861 | -8.76093 | 12182 ft | 372 kts | 44° |
| 2026-05-06 16:18 | 39.14711 | -8.73739 | 12732 ft | 375 kts | 44° |
| 2026-05-06 16:18 | 39.16578 | -8.71359 | 13245 ft | 379 kts | 44° |
| 2026-05-06 16:18 | 39.18460 | -8.68960 | 13750 ft | 383 kts | 44° |
| 2026-05-06 16:19 | 39.20363 | -8.66534 | 14248 ft | 386 kts | 44° |
| 2026-05-06 16:19 | 39.22277 | -8.64091 | 14727 ft | 389 kts | 44° |
| 2026-05-06 16:19 | 39.24210 | -8.61620 | 15203 ft | 393 kts | 44° |
| 2026-05-06 16:19 | 39.26155 | -8.59129 | 15682 ft | 396 kts | 44° |
| 2026-05-06 16:20 | 39.28116 | -8.56611 | 16155 ft | 399 kts | 44° |
| 2026-05-06 16:20 | 39.30096 | -8.54070 | 16619 ft | 402 kts | 44° |
| 2026-05-06 16:20 | 39.32085 | -8.51509 | 17042 ft | 406 kts | 44° |
| 2026-05-06 16:20 | 39.34095 | -8.48918 | 17451 ft | 409 kts | 44° |
| 2026-05-06 16:21 | 39.36117 | -8.46313 | 17863 ft | 412 kts | 44° |
| 2026-05-06 16:21 | 39.38124 | -8.43729 | 18260 ft | 414 kts | 44° |
| 2026-05-06 16:21 | 39.40175 | -8.41086 | 18659 ft | 417 kts | 44° |
| 2026-05-06 16:21 | 39.42239 | -8.38424 | 19040 ft | 420 kts | 44° |
| 2026-05-06 16:22 | 39.44317 | -8.35742 | 19417 ft | 423 kts | 44° |
| 2026-05-06 16:22 | 39.46407 | -8.33047 | 19793 ft | 426 kts | 44° |
| 2026-05-06 16:22 | 39.48512 | -8.30330 | 20160 ft | 429 kts | 44° |
| 2026-05-06 16:22 | 39.50631 | -8.27587 | 20540 ft | 431 kts | 44° |
| 2026-05-06 16:23 | 39.52757 | -8.24828 | 20897 ft | 434 kts | 44° |
| 2026-05-06 16:23 | 39.54897 | -8.22052 | 21252 ft | 437 kts | 44° |
| 2026-05-06 16:23 | 39.57050 | -8.19258 | 21592 ft | 439 kts | 44° |
| 2026-05-06 16:23 | 39.59216 | -8.16442 | 21943 ft | 442 kts | 44° |
| 2026-05-06 16:24 | 39.61390 | -8.13616 | 22286 ft | 444 kts | 44° |
| 2026-05-06 16:24 | 39.63578 | -8.10768 | 22614 ft | 447 kts | 44° |
| 2026-05-06 16:24 | 39.65778 | -8.07897 | 22939 ft | 450 kts | 44° |
| 2026-05-06 16:24 | 39.67993 | -8.05007 | 23260 ft | 452 kts | 44° |
| 2026-05-06 16:25 | 39.70191 | -8.02144 | 23557 ft | 454 kts | 44° |
| 2026-05-06 16:25 | 39.72426 | -7.99229 | 23865 ft | 457 kts | 44° |
| 2026-05-06 16:25 | 39.74671 | -7.96296 | 24162 ft | 459 kts | 44° |
| 2026-05-06 16:25 | 39.76929 | -7.93342 | 24467 ft | 461 kts | 44° |